createdAt,value
2023-12-02T00:00:05.683Z,7.90
2023-12-02T00:02:39.511Z,8.80
2023-12-02T00:05:07.445Z,9.10
2023-12-02T00:07:35.033Z,7.70
2023-12-02T00:10:02.610Z,7.20
2023-12-02T00:12:30.389Z,7.90
2023-12-02T00:14:58.078Z,10.20
2023-12-02T00:17:25.793Z,10.80
2023-12-02T00:19:53.349Z,13.30
2023-12-02T00:22:21.342Z,14.50
2023-12-02T00:24:49.659Z,15.00
2023-12-02T00:27:18.447Z,15.40
2023-12-02T00:29:46.043Z,12.90
2023-12-02T00:32:13.782Z,10.80
2023-12-02T00:37:22.965Z,12.30
2023-12-02T00:39:50.522Z,11.70
2023-12-02T00:42:18.102Z,11.60
2023-12-02T00:44:45.662Z,10.20
2023-12-02T00:47:13.356Z,14.20
2023-12-02T00:49:40.934Z,13.40
2023-12-02T00:52:08.504Z,13.40
2023-12-02T00:54:37.710Z,12.30
2023-12-02T00:57:05.828Z,13.50
2023-12-02T00:59:33.525Z,14.10
2023-12-02T01:02:01.243Z,12.90
2023-12-02T01:04:28.910Z,14.00
2023-12-02T01:06:56.887Z,17.10
2023-12-02T01:09:24.451Z,17.60
2023-12-02T01:11:52.131Z,16.20
2023-12-02T01:14:19.684Z,13.20
2023-12-02T01:16:47.364Z,12.10
2023-12-02T01:19:14.928Z,11.50
2023-12-02T01:21:42.562Z,12.30
2023-12-02T01:24:10.310Z,12.70
2023-12-02T01:26:37.924Z,9.20
2023-12-02T01:29:05.479Z,7.80
2023-12-02T01:31:33.024Z,7.30
2023-12-02T01:34:00.738Z,8.60
2023-12-02T01:36:28.588Z,7.90
2023-12-02T01:38:56.246Z,7.30
2023-12-02T01:41:24.849Z,7.60
2023-12-02T01:43:52.436Z,8.60
2023-12-02T01:46:20.022Z,9.30
2023-12-02T01:48:47.807Z,7.80
2023-12-02T01:51:15.522Z,7.80
2023-12-02T01:53:43.061Z,8.20
2023-12-02T01:56:11.052Z,8.80
2023-12-02T01:58:39.024Z,9.90
2023-12-02T02:01:06.954Z,9.40
2023-12-02T02:03:34.552Z,8.20
2023-12-02T02:06:02.206Z,9.50
2023-12-02T02:08:29.764Z,9.60
2023-12-02T02:10:58.501Z,8.00
2023-12-02T02:13:26.905Z,8.80
2023-12-02T02:15:54.986Z,12.70
2023-12-02T02:18:22.772Z,13.80
2023-12-02T02:20:52.228Z,12.40
2023-12-02T02:23:20.326Z,11.30
2023-12-02T02:25:53.151Z,13.10
2023-12-02T02:28:24.842Z,10.90
2023-12-02T02:33:19.958Z,9.70
2023-12-02T02:35:48.688Z,9.30
2023-12-02T02:38:16.433Z,8.40
2023-12-02T02:40:44.095Z,9.00
2023-12-02T02:43:12.577Z,8.90
2023-12-02T02:45:40.149Z,9.80
2023-12-02T02:48:09.227Z,10.10
2023-12-02T02:50:36.977Z,9.40
2023-12-02T02:53:04.517Z,9.80
2023-12-02T02:55:32.072Z,9.60
2023-12-02T02:57:59.692Z,7.90
2023-12-02T03:00:27.486Z,8.20
2023-12-02T03:02:55.237Z,8.20
2023-12-02T03:05:25.857Z,8.90
2023-12-02T03:07:54.816Z,9.30
2023-12-02T03:10:23.166Z,6.40
2023-12-02T03:12:50.714Z,5.90
2023-12-02T03:15:19.127Z,6.60
2023-12-02T03:17:46.742Z,5.80
2023-12-02T03:20:14.360Z,5.70
2023-12-02T03:22:41.938Z,6.00
2023-12-02T03:25:09.506Z,6.90
2023-12-02T03:27:38.065Z,6.60
2023-12-02T03:30:06.742Z,6.00
2023-12-02T03:32:34.340Z,6.70
2023-12-02T03:35:01.960Z,6.90
2023-12-02T03:37:29.483Z,6.70
2023-12-02T03:39:57.274Z,7.60
2023-12-02T03:42:24.860Z,6.90
2023-12-02T03:44:52.521Z,8.00
2023-12-02T03:47:20.061Z,6.40
2023-12-02T03:49:47.626Z,8.80
2023-12-02T03:52:15.383Z,19.80
2023-12-02T03:54:42.950Z,22.20
2023-12-02T03:57:10.931Z,15.90
2023-12-02T03:59:40.311Z,15.60
2023-12-02T04:02:09.144Z,15.70
2023-12-02T04:04:36.983Z,14.60
2023-12-02T04:07:06.264Z,9.40
2023-12-02T04:09:34.073Z,10.20
2023-12-02T04:12:01.771Z,10.00
2023-12-02T04:14:29.371Z,8.80
2023-12-02T04:16:57.185Z,6.70
2023-12-02T04:19:24.863Z,7.00
2023-12-02T04:21:52.507Z,7.80
2023-12-02T04:24:20.177Z,9.40
2023-12-02T04:26:48.357Z,10.00
2023-12-02T04:29:16.026Z,9.90
2023-12-02T04:31:43.618Z,9.30
2023-12-02T04:34:11.235Z,9.50
2023-12-02T04:36:38.987Z,9.70
2023-12-02T04:39:06.743Z,9.60
2023-12-02T04:41:34.474Z,10.50
2023-12-02T04:44:02.701Z,9.40
2023-12-02T04:46:30.230Z,10.10
2023-12-02T04:48:58.449Z,10.10
2023-12-02T04:51:26.251Z,10.50
2023-12-02T04:53:54.310Z,9.90
2023-12-02T04:56:22.339Z,9.40
2023-12-02T04:58:49.883Z,10.10
2023-12-02T05:01:17.606Z,10.60
2023-12-02T05:03:45.333Z,11.30
2023-12-02T05:06:16.592Z,12.40
2023-12-02T05:08:45.669Z,12.50
2023-12-02T05:11:21.589Z,11.20
2023-12-02T05:13:49.303Z,11.20
2023-12-02T05:16:17.033Z,11.80
2023-12-02T05:18:44.741Z,11.60
2023-12-02T05:21:13.152Z,11.70
2023-12-02T05:23:41.552Z,12.60
2023-12-02T05:26:09.577Z,12.40
2023-12-02T05:28:39.257Z,11.90
2023-12-02T05:31:07.848Z,11.60
2023-12-02T05:33:35.645Z,12.00
2023-12-02T05:36:03.254Z,11.70
2023-12-02T05:38:30.803Z,12.60
2023-12-02T05:40:58.725Z,12.00
2023-12-02T05:43:26.495Z,11.30
2023-12-02T05:45:56.273Z,11.10
2023-12-02T05:48:24.276Z,11.30
2023-12-02T05:50:52.295Z,11.20
2023-12-02T05:53:19.948Z,10.80
2023-12-02T05:55:47.513Z,10.20
2023-12-02T05:58:15.148Z,11.10
2023-12-02T06:00:42.736Z,11.40
2023-12-02T06:03:10.427Z,10.40
2023-12-02T06:05:38.176Z,10.00
2023-12-02T06:08:05.765Z,9.60
2023-12-02T06:10:34.280Z,10.30
2023-12-02T06:13:01.808Z,9.90
2023-12-02T06:15:29.424Z,10.20
2023-12-02T06:17:58.659Z,9.20
2023-12-02T06:20:26.474Z,10.70
2023-12-02T06:22:54.506Z,11.10
2023-12-02T06:25:22.191Z,11.20
2023-12-02T06:27:49.742Z,12.40
2023-12-02T06:30:18.677Z,12.50
2023-12-02T06:32:46.500Z,12.20
2023-12-02T06:35:14.231Z,11.90
2023-12-02T06:37:41.910Z,13.10
2023-12-02T06:40:10.236Z,12.00
2023-12-02T06:42:38.531Z,11.00
2023-12-02T06:45:07.152Z,13.20
2023-12-02T06:47:34.910Z,12.30
2023-12-02T06:50:02.764Z,11.80
2023-12-02T06:52:30.523Z,12.10
2023-12-02T06:57:29.764Z,12.40
2023-12-02T06:59:57.481Z,12.40
2023-12-02T07:02:25.370Z,13.30
2023-12-02T07:04:53.638Z,11.50
2023-12-02T07:07:21.421Z,12.20
2023-12-02T07:09:48.993Z,12.30
2023-12-02T07:12:16.947Z,13.30
2023-12-02T07:14:45.567Z,12.20
2023-12-02T07:17:13.150Z,12.70
2023-12-02T07:19:40.777Z,12.60
2023-12-02T07:22:08.493Z,12.00
2023-12-02T07:24:36.489Z,12.60
2023-12-02T07:27:04.523Z,12.00
2023-12-02T07:32:02.863Z,12.60
2023-12-02T07:34:30.456Z,12.40
2023-12-02T07:36:58.182Z,12.50
2023-12-02T07:39:25.724Z,13.50
2023-12-02T07:41:53.371Z,13.50
2023-12-02T07:44:21.000Z,21.30
2023-12-02T07:46:48.612Z,30.90
2023-12-02T07:49:16.259Z,26.70
2023-12-02T07:51:43.787Z,20.50
2023-12-02T07:54:11.367Z,17.30
2023-12-02T07:56:40.504Z,15.70
2023-12-02T07:59:08.208Z,16.20
2023-12-02T08:01:35.966Z,14.80
2023-12-02T08:04:03.737Z,14.10
2023-12-02T08:06:31.359Z,13.70
2023-12-02T08:08:59.194Z,14.40
2023-12-02T08:11:28.260Z,13.20
2023-12-02T08:13:56.113Z,12.30
2023-12-02T08:16:23.702Z,11.60
2023-12-02T08:18:51.495Z,11.80
2023-12-02T08:21:19.133Z,10.00
2023-12-02T08:23:46.729Z,7.90
2023-12-02T08:26:14.382Z,7.60
2023-12-02T08:28:42.041Z,7.90
2023-12-02T08:31:09.594Z,6.60
2023-12-02T08:33:37.252Z,10.70
2023-12-02T08:36:06.331Z,12.80
2023-12-02T08:38:35.960Z,13.00
2023-12-02T08:41:05.011Z,12.90
2023-12-02T08:43:32.823Z,12.20
2023-12-02T08:46:00.525Z,12.90
2023-12-02T08:48:28.135Z,12.70
2023-12-02T08:50:55.821Z,11.70
2023-12-02T08:53:23.381Z,11.90
2023-12-02T08:55:50.992Z,12.90
2023-12-02T08:58:18.715Z,11.80
2023-12-02T09:00:48.769Z,12.90
2023-12-02T09:03:17.961Z,12.50
2023-12-02T09:05:45.752Z,11.20
2023-12-02T09:08:13.405Z,9.50
2023-12-02T09:10:41.093Z,10.30
2023-12-02T09:13:43.942Z,11.30
2023-12-02T09:16:12.339Z,11.10
2023-12-02T09:18:40.187Z,8.20
2023-12-02T09:21:23.345Z,8.00
2023-12-02T09:23:53.855Z,7.60
2023-12-02T09:26:26.015Z,8.20
2023-12-02T09:28:54.244Z,7.10
2023-12-02T09:31:21.925Z,6.90
2023-12-02T09:33:57.597Z,6.20
2023-12-02T09:36:36.159Z,8.20
2023-12-02T09:39:16.883Z,7.90
2023-12-02T09:41:51.026Z,9.70
2023-12-02T09:44:22.038Z,7.30
2023-12-02T09:47:11.774Z,8.20
2023-12-02T09:49:57.888Z,6.50
2023-12-02T09:53:02.034Z,5.40
2023-12-02T09:55:33.432Z,5.00
2023-12-02T09:58:07.967Z,5.50
2023-12-02T10:00:40.867Z,7.00
2023-12-02T10:03:20.825Z,5.70
2023-12-02T10:05:59.071Z,5.10
2023-12-02T10:08:31.110Z,5.30
2023-12-02T10:11:03.805Z,5.30
2023-12-02T10:13:52.368Z,6.00
2023-12-02T10:16:21.794Z,5.60
2023-12-02T10:18:54.000Z,5.40
2023-12-02T10:21:22.450Z,6.00
2023-12-02T10:23:59.497Z,4.80
2023-12-02T10:26:33.061Z,6.50
2023-12-02T10:29:07.263Z,6.40
2023-12-02T10:31:36.820Z,6.80
2023-12-02T10:34:32.715Z,5.80
2023-12-02T10:37:01.997Z,6.20
2023-12-02T10:39:47.985Z,6.60
2023-12-02T10:42:28.236Z,5.60
2023-12-02T10:45:06.205Z,5.90
2023-12-02T10:47:34.221Z,6.30
2023-12-02T10:50:02.460Z,6.40
2023-12-02T10:55:00.989Z,5.20
2023-12-02T10:57:28.767Z,5.80
2023-12-02T11:00:14.338Z,6.50
2023-12-02T11:02:51.448Z,5.80
2023-12-02T11:05:23.792Z,6.30
2023-12-02T11:08:00.066Z,5.40
2023-12-02T11:10:46.959Z,5.80
2023-12-02T11:13:21.078Z,5.50
2023-12-02T11:16:07.574Z,6.00
2023-12-02T11:18:59.196Z,5.40
2023-12-02T11:21:36.611Z,5.80
2023-12-02T11:24:08.676Z,5.40
2023-12-02T11:26:56.618Z,5.90
2023-12-02T11:30:01.462Z,8.20
2023-12-02T11:32:48.841Z,6.10
2023-12-02T11:35:19.582Z,6.40
2023-12-02T11:38:00.869Z,5.30
2023-12-02T11:40:39.898Z,5.90
2023-12-02T11:44:06.133Z,5.10
2023-12-02T11:47:08.402Z,6.00
2023-12-02T11:50:06.981Z,6.20
2023-12-02T11:52:56.369Z,6.30
2023-12-02T11:55:31.119Z,5.90
2023-12-02T11:58:12.488Z,6.10
2023-12-02T12:00:50.068Z,5.60
2023-12-02T12:03:36.411Z,4.80
2023-12-02T12:06:23.766Z,5.10
2023-12-02T12:09:09.663Z,4.90
2023-12-02T12:11:37.865Z,5.20
2023-12-02T12:14:06.694Z,5.50
2023-12-02T12:16:42.443Z,4.90
2023-12-02T12:19:11.167Z,5.50
2023-12-02T12:21:39.039Z,5.90
2023-12-02T12:24:07.246Z,6.60
2023-12-02T12:26:34.981Z,7.70
2023-12-02T12:29:03.350Z,7.80
2023-12-02T12:31:33.623Z,6.30
2023-12-02T12:34:05.202Z,5.00
2023-12-02T12:36:33.125Z,5.30
2023-12-02T12:39:01.120Z,5.00
2023-12-02T12:41:29.103Z,4.90
2023-12-02T12:43:58.381Z,5.40
2023-12-02T12:46:29.834Z,5.20
2023-12-02T12:48:57.877Z,5.90
2023-12-02T12:51:26.124Z,6.20
2023-12-02T12:54:10.118Z,6.80
2023-12-02T12:56:40.884Z,7.10
2023-12-02T12:59:15.847Z,5.70
2023-12-02T13:02:02.663Z,6.20
2023-12-02T13:04:37.543Z,6.30
2023-12-02T13:07:12.086Z,8.30
2023-12-02T13:09:44.684Z,6.80
2023-12-02T13:12:27.839Z,6.60
2023-12-02T13:14:59.522Z,8.40
2023-12-02T13:17:27.350Z,6.40
2023-12-02T13:19:55.210Z,5.00
2023-12-02T13:22:22.920Z,6.30
2023-12-02T13:24:56.620Z,6.50
2023-12-02T13:27:38.081Z,6.10
2023-12-02T13:30:07.689Z,7.00
2023-12-02T13:32:37.106Z,5.90
2023-12-02T13:35:05.990Z,5.00
2023-12-02T13:37:43.338Z,5.50
2023-12-02T13:40:12.789Z,6.80
2023-12-02T13:42:40.442Z,5.90
2023-12-02T13:45:11.508Z,5.80
2023-12-02T13:47:58.801Z,6.70
2023-12-02T13:50:27.916Z,5.80
2023-12-02T13:53:23.698Z,5.50
2023-12-02T13:55:58.806Z,6.50
2023-12-02T13:58:33.936Z,6.70
2023-12-02T14:01:22.114Z,6.50
2023-12-02T14:04:21.191Z,7.40
2023-12-02T14:07:02.520Z,9.90
2023-12-02T14:09:30.413Z,7.90
2023-12-02T14:12:11.078Z,6.00
2023-12-02T14:15:13.362Z,6.60
2023-12-02T14:17:53.121Z,8.30
2023-12-02T14:20:39.430Z,8.90
2023-12-02T14:23:20.351Z,10.60
2023-12-02T14:26:18.372Z,11.60
2023-12-02T14:29:30.662Z,14.80
2023-12-02T14:32:09.848Z,10.20
2023-12-02T14:35:15.451Z,13.60
2023-12-02T14:37:55.396Z,12.60
2023-12-02T14:40:35.459Z,11.20
2023-12-02T14:43:20.617Z,10.10
2023-12-02T14:45:50.562Z,6.90
2023-12-02T14:48:18.453Z,6.40
2023-12-02T14:50:46.682Z,6.80
2023-12-02T14:53:15.061Z,7.10
2023-12-02T14:55:42.918Z,6.10
2023-12-02T14:58:24.829Z,6.70
2023-12-02T15:00:57.376Z,5.80
2023-12-02T15:03:28.161Z,6.70
2023-12-02T15:05:57.019Z,6.20
2023-12-02T15:08:24.779Z,6.60
2023-12-02T15:10:53.057Z,7.10
2023-12-02T15:13:24.422Z,5.00
2023-12-02T15:15:53.336Z,5.20
2023-12-02T15:18:23.371Z,7.30
2023-12-02T15:21:11.626Z,6.20
2023-12-02T15:23:39.910Z,5.70
2023-12-02T15:26:13.948Z,7.10
2023-12-02T15:28:41.935Z,7.00
2023-12-02T15:31:17.453Z,6.30
2023-12-02T15:33:59.567Z,7.10
2023-12-02T15:36:28.292Z,8.40
2023-12-02T15:38:57.363Z,8.10
2023-12-02T15:41:25.318Z,7.50
2023-12-02T15:43:57.294Z,6.70
2023-12-02T15:46:26.813Z,8.10
2023-12-02T15:48:54.935Z,7.10
2023-12-02T15:51:22.873Z,8.80
2023-12-02T15:53:50.885Z,9.70
2023-12-02T15:56:20.201Z,8.80
2023-12-02T15:58:48.611Z,10.40
2023-12-02T16:01:17.767Z,9.10
2023-12-02T16:03:46.076Z,7.90
2023-12-02T16:06:14.711Z,6.50
2023-12-02T16:08:42.886Z,6.30
2023-12-02T16:11:10.854Z,5.60
2023-12-02T16:13:42.780Z,6.50
2023-12-02T16:16:11.949Z,7.20
2023-12-02T16:18:42.076Z,6.00
2023-12-02T16:21:11.412Z,7.40
2023-12-02T16:23:40.228Z,7.80
2023-12-02T16:26:09.011Z,7.30
2023-12-02T16:28:36.774Z,7.00
2023-12-02T16:31:05.413Z,8.50
2023-12-02T16:33:33.350Z,7.30
2023-12-02T16:36:01.627Z,9.60
2023-12-02T16:38:30.189Z,7.60
2023-12-02T16:40:58.154Z,7.70
2023-12-02T16:43:26.136Z,7.90
2023-12-02T16:45:59.172Z,8.00
2023-12-02T16:48:28.065Z,7.40
2023-12-02T16:50:55.994Z,6.90
2023-12-02T16:53:24.853Z,9.60
2023-12-02T16:56:05.428Z,8.00
2023-12-02T16:58:42.564Z,7.00
2023-12-02T17:01:10.465Z,5.80
2023-12-02T17:03:38.526Z,6.10
2023-12-02T17:06:08.196Z,7.70
2023-12-02T17:08:36.729Z,6.60
2023-12-02T17:11:11.169Z,7.70
2023-12-02T17:13:52.899Z,7.80
2023-12-02T17:19:10.625Z,7.10
2023-12-02T17:21:42.684Z,7.60
2023-12-02T17:24:21.898Z,8.70
2023-12-02T17:26:56.325Z,7.60
2023-12-02T17:29:26.271Z,7.60
2023-12-02T17:31:55.055Z,7.30
2023-12-02T17:34:23.317Z,8.50
2023-12-02T17:36:51.460Z,8.30
2023-12-02T17:39:20.221Z,8.30
2023-12-02T17:41:51.506Z,9.80
2023-12-02T17:44:19.608Z,9.90
2023-12-02T17:46:48.296Z,12.10
2023-12-02T17:49:16.381Z,10.10
2023-12-02T17:51:44.295Z,9.20
2023-12-02T17:54:12.107Z,10.60
2023-12-02T17:56:40.044Z,11.40
2023-12-02T17:59:07.774Z,13.30
2023-12-02T18:01:36.121Z,11.00
2023-12-02T18:04:03.959Z,12.90
2023-12-02T18:06:31.758Z,12.20
2023-12-02T18:08:59.783Z,11.80
2023-12-02T18:11:28.242Z,11.70
2023-12-02T18:13:56.031Z,11.00
2023-12-02T18:16:23.767Z,8.50
2023-12-02T18:18:53.100Z,8.00
2023-12-02T18:21:22.287Z,6.40
2023-12-02T18:23:57.094Z,5.80
2023-12-02T18:26:24.860Z,6.70
2023-12-02T18:28:52.526Z,6.70
2023-12-02T18:31:20.287Z,6.50
2023-12-02T18:33:48.298Z,7.00
2023-12-02T18:36:16.290Z,6.50
2023-12-02T18:38:44.085Z,5.80
2023-12-02T18:41:11.861Z,6.30
2023-12-02T18:43:40.747Z,5.90
2023-12-02T18:46:10.311Z,6.30
2023-12-02T18:48:38.068Z,7.00
2023-12-02T18:51:06.858Z,7.60
2023-12-02T18:53:34.437Z,6.30
2023-12-02T18:56:02.216Z,6.50
2023-12-02T18:58:30.087Z,6.70
2023-12-02T19:00:57.867Z,5.50
2023-12-02T19:03:25.820Z,4.90
2023-12-02T19:05:53.684Z,5.50
2023-12-02T19:08:22.806Z,7.00
2023-12-02T19:10:50.649Z,7.20
2023-12-02T19:13:18.629Z,7.40
2023-12-02T19:15:46.529Z,7.00
2023-12-02T19:18:14.430Z,5.30
2023-12-02T19:20:42.329Z,6.00
2023-12-02T19:23:10.056Z,6.40
2023-12-02T19:25:37.866Z,5.90
2023-12-02T19:28:06.032Z,5.40
2023-12-02T19:30:34.018Z,6.00
2023-12-02T19:33:01.966Z,6.20
2023-12-02T19:35:30.041Z,6.00
2023-12-02T19:38:02.988Z,6.20
2023-12-02T19:40:31.190Z,5.20
2023-12-02T19:43:00.187Z,6.30
2023-12-02T19:45:28.302Z,6.20
2023-12-02T19:47:56.380Z,5.50
2023-12-02T19:50:25.199Z,5.20
2023-12-02T19:52:53.818Z,5.40
2023-12-02T19:55:21.553Z,5.10
2023-12-02T19:57:49.245Z,6.30
2023-12-02T20:00:17.845Z,5.10
2023-12-02T20:02:45.677Z,5.70
2023-12-02T20:05:13.960Z,6.90
2023-12-02T20:07:41.781Z,6.10
2023-12-02T20:10:11.616Z,7.50
2023-12-02T20:12:39.542Z,6.90
2023-12-02T20:15:08.174Z,7.50
2023-12-02T20:17:36.041Z,6.10
2023-12-02T20:20:04.314Z,6.70
2023-12-02T20:22:32.083Z,5.90
2023-12-02T20:25:00.083Z,6.90
2023-12-02T20:27:27.858Z,8.70
2023-12-02T20:29:55.878Z,6.90
2023-12-02T20:32:23.602Z,7.20
2023-12-02T20:34:51.257Z,6.80
2023-12-02T20:37:19.064Z,6.60
2023-12-02T20:39:46.908Z,7.20
2023-12-02T20:42:14.942Z,10.00
2023-12-02T20:44:42.539Z,8.70
2023-12-02T20:47:11.087Z,7.20
2023-12-02T20:49:39.073Z,7.40
2023-12-02T20:52:08.073Z,5.70
2023-12-02T20:54:36.025Z,6.50
2023-12-02T20:57:04.000Z,7.80
2023-12-02T20:59:32.722Z,8.10
2023-12-02T21:02:00.704Z,7.30
2023-12-02T21:04:28.632Z,7.10
2023-12-02T21:06:56.578Z,8.40
2023-12-02T21:09:24.448Z,7.80
2023-12-02T21:11:52.273Z,6.60
2023-12-02T21:14:20.377Z,6.20
2023-12-02T21:16:48.142Z,6.30
2023-12-02T21:19:18.497Z,8.60
2023-12-02T21:21:47.861Z,6.80
2023-12-02T21:24:16.039Z,8.50
2023-12-02T21:26:47.051Z,6.40
2023-12-02T21:29:14.806Z,6.30
2023-12-02T21:31:42.688Z,5.40
2023-12-02T21:34:13.578Z,10.30
2023-12-02T21:36:41.400Z,9.20
2023-12-02T21:39:14.582Z,6.80
2023-12-02T21:41:42.543Z,5.00
2023-12-02T21:44:10.147Z,5.80
2023-12-02T21:46:37.881Z,6.00
2023-12-02T21:49:12.192Z,7.00
2023-12-02T21:51:44.712Z,6.20
2023-12-02T21:54:18.240Z,7.00
2023-12-02T21:56:47.450Z,7.10
2023-12-02T21:59:22.673Z,6.20
2023-12-02T22:01:54.858Z,7.00
2023-12-02T22:04:24.322Z,5.70
2023-12-02T22:06:53.706Z,7.30
2023-12-02T22:09:36.315Z,7.00
2023-12-02T22:12:09.444Z,6.60
2023-12-02T22:14:37.328Z,6.00
2023-12-02T22:17:06.837Z,7.60
2023-12-02T22:19:35.422Z,6.20
2023-12-02T22:22:06.461Z,10.00
2023-12-02T22:24:38.785Z,8.10
2023-12-02T22:27:07.303Z,7.40
2023-12-02T22:29:35.272Z,8.10
2023-12-02T22:32:02.928Z,7.30
2023-12-02T22:34:30.661Z,6.00
2023-12-02T22:36:58.985Z,6.50
2023-12-02T22:39:28.194Z,7.30
2023-12-02T22:41:57.108Z,7.00
2023-12-02T22:44:24.991Z,6.10
2023-12-02T22:47:00.199Z,5.80
2023-12-02T22:49:28.957Z,7.60
2023-12-02T22:51:58.601Z,7.40
2023-12-02T22:54:41.778Z,7.20
2023-12-02T22:57:11.434Z,7.00
2023-12-02T22:59:42.260Z,7.10
2023-12-02T23:02:12.896Z,8.80
2023-12-02T23:04:44.568Z,8.50
2023-12-02T23:07:16.384Z,8.00
2023-12-02T23:09:52.600Z,7.50
2023-12-02T23:12:32.876Z,6.30
2023-12-02T23:15:03.253Z,7.20
2023-12-02T23:17:31.867Z,6.20
2023-12-02T23:20:01.904Z,6.30
2023-12-02T23:22:29.897Z,6.90
2023-12-02T23:24:57.553Z,6.10
2023-12-02T23:27:44.179Z,8.10
2023-12-02T23:30:21.524Z,9.00
2023-12-02T23:32:49.493Z,9.90
2023-12-02T23:35:24.852Z,8.10
2023-12-02T23:37:54.577Z,8.20
2023-12-02T23:40:26.401Z,7.00
2023-12-02T23:42:55.222Z,6.40
2023-12-02T23:45:23.020Z,6.50
2023-12-02T23:47:51.617Z,7.90
2023-12-02T23:50:19.938Z,6.30
2023-12-02T23:52:48.097Z,7.80
2023-12-02T23:55:15.998Z,7.10
2023-12-02T23:57:44.403Z,6.00
